<?xml version="1.0" encoding="UTF-8" standalone="no" ?>
<gpx xmlns="http://www.topografix.com/GPX/1/1" xmlns:xsi="http://www.w3.org/2001/XMLSchema-instance" xsi:schemaLocation="http://www.topografix.com/GPX/1/1 http://www.topografix.com/GPX/1/1/gpx.xsd" version="1.1" creator="VisuGPX - https://www.visugpx.com">
  <metadata>
    <name>Le Col de la Sambie (Drôme)</name>
    <desc><![CDATA[Niveau facile au départ des Barbières

]]></desc>
  </metadata>
  <trk>
    <name><![CDATA[Le Col de la Sambie - F]]></name>
    <cmt><![CDATA[Carte IGN Série Bleue : 3136SB - Bourg-de-Péage/Chabeuil]]></cmt>
    <trkseg>
      <trkpt lat="44.95153" lon="5.14505">
        <ele>434</ele>
        <time>2020-08-26T18:05:10.648Z</time>
      </trkpt>
      <trkpt lat="44.95147" lon="5.14516">
        <ele>435</ele>
        <time>2020-08-26T18:05:18.591Z</time>
      </trkpt>
      <trkpt lat="44.95172" lon="5.14571">
        <ele>435</ele>
        <time>2020-08-26T18:06:07.239Z</time>
      </trkpt>
      <trkpt lat="44.95199" lon="5.1465">
        <ele>443</ele>
        <time>2020-08-26T18:07:34.957Z</time>
      </trkpt>
      <trkpt lat="44.95202" lon="5.14697">
        <ele>447</ele>
        <time>2020-08-26T18:08:22.328Z</time>
      </trkpt>
      <trkpt lat="44.95215" lon="5.1476">
        <ele>453</ele>
        <time>2020-08-26T18:09:43.180Z</time>
      </trkpt>
      <trkpt lat="44.95226" lon="5.14785">
        <ele>456</ele>
        <time>2020-08-26T18:10:13.029Z</time>
      </trkpt>
      <trkpt lat="44.95235" lon="5.14792">
        <ele>460</ele>
        <time>2020-08-26T18:10:27.803Z</time>
      </trkpt>
      <trkpt lat="44.95235" lon="5.14799">
        <ele>459</ele>
        <time>2020-08-26T18:10:34.865Z</time>
      </trkpt>
      <trkpt lat="44.9526" lon="5.14847">
        <ele>463</ele>
        <time>2020-08-26T18:11:17.294Z</time>
      </trkpt>
      <trkpt lat="44.9528" lon="5.14902">
        <ele>465</ele>
        <time>2020-08-26T18:11:59.132Z</time>
      </trkpt>
      <trkpt lat="44.95303" lon="5.14981">
        <ele>468</ele>
        <time>2020-08-26T18:12:58.723Z</time>
      </trkpt>
      <trkpt lat="44.95349" lon="5.15107">
        <ele>475</ele>
        <time>2020-08-26T18:14:35.619Z</time>
      </trkpt>
      <trkpt lat="44.95367" lon="5.15169">
        <ele>476</ele>
        <time>2020-08-26T18:15:26.018Z</time>
      </trkpt>
      <trkpt lat="44.95389" lon="5.15199">
        <ele>481</ele>
        <time>2020-08-26T18:16:03.936Z</time>
      </trkpt>
      <trkpt lat="44.954" lon="5.15222">
        <ele>484</ele>
        <time>2020-08-26T18:16:28.117Z</time>
      </trkpt>
      <trkpt lat="44.95385" lon="5.15257">
        <ele>484</ele>
        <time>2020-08-26T18:16:57.704Z</time>
      </trkpt>
      <trkpt lat="44.95375" lon="5.15294">
        <ele>488</ele>
        <time>2020-08-26T18:17:20.931Z</time>
      </trkpt>
      <trkpt lat="44.95348" lon="5.15331">
        <ele>485</ele>
        <time>2020-08-26T18:17:53.713Z</time>
      </trkpt>
      <trkpt lat="44.95313" lon="5.15406">
        <ele>490</ele>
        <time>2020-08-26T18:19:00.879Z</time>
      </trkpt>
      <trkpt lat="44.953" lon="5.15439">
        <ele>492</ele>
        <time>2020-08-26T18:19:28.088Z</time>
      </trkpt>
      <trkpt lat="44.95297" lon="5.15462">
        <ele>494</ele>
        <time>2020-08-26T18:19:42.757Z</time>
      </trkpt>
      <trkpt lat="44.95297" lon="5.15488">
        <ele>494</ele>
        <time>2020-08-26T18:19:58.640Z</time>
      </trkpt>
      <trkpt lat="44.95304" lon="5.15562">
        <ele>494</ele>
        <time>2020-08-26T18:20:50.950Z</time>
      </trkpt>
      <trkpt lat="44.95315" lon="5.15628">
        <ele>500</ele>
        <time>2020-08-26T18:22:03.633Z</time>
      </trkpt>
      <trkpt lat="44.95332" lon="5.15689">
        <ele>507</ele>
        <time>2020-08-26T18:23:17.049Z</time>
      </trkpt>
      <trkpt lat="44.95348" lon="5.15731">
        <ele>512</ele>
        <time>2020-08-26T18:23:51.138Z</time>
      </trkpt>
      <trkpt lat="44.95363" lon="5.1579">
        <ele>512</ele>
        <time>2020-08-26T18:24:31.506Z</time>
      </trkpt>
      <trkpt lat="44.95392" lon="5.15871">
        <ele>516</ele>
        <time>2020-08-26T18:25:39.648Z</time>
      </trkpt>
      <trkpt lat="44.954" lon="5.159">
        <ele>519</ele>
        <time>2020-08-26T18:26:03.035Z</time>
      </trkpt>
      <trkpt lat="44.954" lon="5.15963">
        <ele>522</ele>
        <time>2020-08-26T18:26:38.693Z</time>
      </trkpt>
      <trkpt lat="44.95393" lon="5.16031">
        <ele>519</ele>
        <time>2020-08-26T18:27:17.969Z</time>
      </trkpt>
      <trkpt lat="44.95393" lon="5.16065">
        <ele>518</ele>
        <time>2020-08-26T18:27:40.171Z</time>
      </trkpt>
      <trkpt lat="44.95385" lon="5.161">
        <ele>514</ele>
        <time>2020-08-26T18:28:00.809Z</time>
      </trkpt>
      <trkpt lat="44.9538" lon="5.16111">
        <ele>512</ele>
        <time>2020-08-26T18:28:08.520Z</time>
      </trkpt>
      <trkpt lat="44.95387" lon="5.16157">
        <ele>518</ele>
        <time>2020-08-26T18:29:28.860Z</time>
      </trkpt>
      <trkpt lat="44.95392" lon="5.16234">
        <ele>534</ele>
        <time>2020-08-26T18:31:49.733Z</time>
      </trkpt>
      <trkpt lat="44.95385" lon="5.16266">
        <ele>539</ele>
        <time>2020-08-26T18:32:41.032Z</time>
      </trkpt>
      <trkpt lat="44.95381" lon="5.16319">
        <ele>548</ele>
        <time>2020-08-26T18:34:02.056Z</time>
      </trkpt>
      <trkpt lat="44.95333" lon="5.16424">
        <ele>567</ele>
        <time>2020-08-26T18:36:01.787Z</time>
      </trkpt>
      <trkpt lat="44.95325" lon="5.1643">
        <ele>568</ele>
        <time>2020-08-26T18:36:13.669Z</time>
      </trkpt>
      <trkpt lat="44.95293" lon="5.16425">
        <ele>563</ele>
        <time>2020-08-26T18:36:41.112Z</time>
      </trkpt>
      <trkpt lat="44.95287" lon="5.1643">
        <ele>562</ele>
        <time>2020-08-26T18:36:47.364Z</time>
      </trkpt>
      <trkpt lat="44.95272" lon="5.16503">
        <ele>570</ele>
        <time>2020-08-26T18:39:06.135Z</time>
      </trkpt>
      <trkpt lat="44.95273" lon="5.16515">
        <ele>572</ele>
        <time>2020-08-26T18:39:28.161Z</time>
      </trkpt>
      <trkpt lat="44.95279" lon="5.16525">
        <ele>576</ele>
        <time>2020-08-26T18:39:52.047Z</time>
      </trkpt>
      <trkpt lat="44.95308" lon="5.16533">
        <ele>589</ele>
        <time>2020-08-26T18:41:13.755Z</time>
      </trkpt>
      <trkpt lat="44.95346" lon="5.16585">
        <ele>600</ele>
        <time>2020-08-26T18:43:08.171Z</time>
      </trkpt>
      <trkpt lat="44.95354" lon="5.16584">
        <ele>604</ele>
        <time>2020-08-26T18:43:24.656Z</time>
      </trkpt>
      <trkpt lat="44.95362" lon="5.16567">
        <ele>606</ele>
        <time>2020-08-26T18:43:53.253Z</time>
      </trkpt>
      <trkpt lat="44.95401" lon="5.16546">
        <ele>613</ele>
        <time>2020-08-26T18:44:50.183Z</time>
      </trkpt>
      <trkpt lat="44.95408" lon="5.16533">
        <ele>613</ele>
        <time>2020-08-26T18:45:06.526Z</time>
      </trkpt>
      <trkpt lat="44.95411" lon="5.16519">
        <ele>610</ele>
        <time>2020-08-26T18:45:20.636Z</time>
      </trkpt>
      <trkpt lat="44.95434" lon="5.16497">
        <ele>617</ele>
        <time>2020-08-26T18:46:03.346Z</time>
      </trkpt>
      <trkpt lat="44.95451" lon="5.16476">
        <ele>617</ele>
        <time>2020-08-26T18:46:37.144Z</time>
      </trkpt>
      <trkpt lat="44.95477" lon="5.16456">
        <ele>624</ele>
        <time>2020-08-26T18:47:29.087Z</time>
      </trkpt>
      <trkpt lat="44.95491" lon="5.16431">
        <ele>626</ele>
        <time>2020-08-26T18:48:29.526Z</time>
      </trkpt>
      <trkpt lat="44.95507" lon="5.16418">
        <ele>632</ele>
        <time>2020-08-26T18:49:18.017Z</time>
      </trkpt>
      <trkpt lat="44.95581" lon="5.16411">
        <ele>656</ele>
        <time>2020-08-26T18:52:32.592Z</time>
      </trkpt>
      <trkpt lat="44.95622" lon="5.16378">
        <ele>665</ele>
        <time>2020-08-26T18:54:28.422Z</time>
      </trkpt>
      <trkpt lat="44.95633" lon="5.16375">
        <ele>670</ele>
        <time>2020-08-26T18:54:52.971Z</time>
      </trkpt>
      <trkpt lat="44.95644" lon="5.16377">
        <ele>674</ele>
        <time>2020-08-26T18:55:08.735Z</time>
      </trkpt>
      <trkpt lat="44.95658" lon="5.1636">
        <ele>675</ele>
        <time>2020-08-26T18:55:24.362Z</time>
      </trkpt>
      <trkpt lat="44.95667" lon="5.16376">
        <ele>672</ele>
        <time>2020-08-26T18:55:36.482Z</time>
      </trkpt>
      <trkpt lat="44.95686" lon="5.16464">
        <ele>672</ele>
        <time>2020-08-26T18:56:39.675Z</time>
      </trkpt>
      <trkpt lat="44.95686" lon="5.1654">
        <ele>679</ele>
        <time>2020-08-26T18:57:46.911Z</time>
      </trkpt>
      <trkpt lat="44.95689" lon="5.16559">
        <ele>681</ele>
        <time>2020-08-26T18:57:59.048Z</time>
      </trkpt>
      <trkpt lat="44.95696" lon="5.16573">
        <ele>680</ele>
        <time>2020-08-26T18:58:17.908Z</time>
      </trkpt>
      <trkpt lat="44.95707" lon="5.16584">
        <ele>675</ele>
        <time>2020-08-26T18:58:55.678Z</time>
      </trkpt>
      <trkpt lat="44.95723" lon="5.16591">
        <ele>667</ele>
        <time>2020-08-26T18:59:43.021Z</time>
      </trkpt>
      <trkpt lat="44.95738" lon="5.16595">
        <ele>660</ele>
        <time>2020-08-26T19:00:28.036Z</time>
      </trkpt>
      <trkpt lat="44.95767" lon="5.16593">
        <ele>650</ele>
        <time>2020-08-26T19:01:16.857Z</time>
      </trkpt>
      <trkpt lat="44.95785" lon="5.16583">
        <ele>647</ele>
        <time>2020-08-26T19:01:48.641Z</time>
      </trkpt>
      <trkpt lat="44.95831" lon="5.16545">
        <ele>637</ele>
        <time>2020-08-26T19:02:38.784Z</time>
      </trkpt>
      <trkpt lat="44.9587" lon="5.16525">
        <ele>637</ele>
        <time>2020-08-26T19:03:13.837Z</time>
      </trkpt>
      <trkpt lat="44.95891" lon="5.16497">
        <ele>632</ele>
        <time>2020-08-26T19:03:43.921Z</time>
      </trkpt>
      <trkpt lat="44.95916" lon="5.16478">
        <ele>630</ele>
        <time>2020-08-26T19:04:06.463Z</time>
      </trkpt>
      <trkpt lat="44.95949" lon="5.16462">
        <ele>632</ele>
        <time>2020-08-26T19:04:34.972Z</time>
      </trkpt>
      <trkpt lat="44.95991" lon="5.16391">
        <ele>625</ele>
        <time>2020-08-26T19:05:30.352Z</time>
      </trkpt>
      <trkpt lat="44.96043" lon="5.16375">
        <ele>634</ele>
        <time>2020-08-26T19:06:26.690Z</time>
      </trkpt>
      <trkpt lat="44.96105" lon="5.16348">
        <ele>634</ele>
        <time>2020-08-26T19:07:26.856Z</time>
      </trkpt>
      <trkpt lat="44.96118" lon="5.16347">
        <ele>635</ele>
        <time>2020-08-26T19:07:38.733Z</time>
      </trkpt>
      <trkpt lat="44.96131" lon="5.16357">
        <ele>638</ele>
        <time>2020-08-26T19:08:03.542Z</time>
      </trkpt>
      <trkpt lat="44.96139" lon="5.16371">
        <ele>638</ele>
        <time>2020-08-26T19:08:26.851Z</time>
      </trkpt>
      <trkpt lat="44.96144" lon="5.16411">
        <ele>645</ele>
        <time>2020-08-26T19:09:10.214Z</time>
      </trkpt>
      <trkpt lat="44.96155" lon="5.16447">
        <ele>646</ele>
        <time>2020-08-26T19:09:34.327Z</time>
      </trkpt>
      <trkpt lat="44.96189" lon="5.16504">
        <ele>639</ele>
        <time>2020-08-26T19:10:36.814Z</time>
      </trkpt>
      <trkpt lat="44.96228" lon="5.16532">
        <ele>632</ele>
        <time>2020-08-26T19:11:17.024Z</time>
      </trkpt>
      <trkpt lat="44.96262" lon="5.16571">
        <ele>630</ele>
        <time>2020-08-26T19:11:54.389Z</time>
      </trkpt>
      <trkpt lat="44.96309" lon="5.16599">
        <ele>625</ele>
        <time>2020-08-26T19:12:35.680Z</time>
      </trkpt>
      <trkpt lat="44.96353" lon="5.16636">
        <ele>625</ele>
        <time>2020-08-26T19:13:19.365Z</time>
      </trkpt>
      <trkpt lat="44.96408" lon="5.1665">
        <ele>617</ele>
        <time>2020-08-26T19:14:26.766Z</time>
      </trkpt>
      <trkpt lat="44.96429" lon="5.16667">
        <ele>613</ele>
        <time>2020-08-26T19:15:06.907Z</time>
      </trkpt>
      <trkpt lat="44.96447" lon="5.16676">
        <ele>609</ele>
        <time>2020-08-26T19:15:41.091Z</time>
      </trkpt>
      <trkpt lat="44.96464" lon="5.16693">
        <ele>603</ele>
        <time>2020-08-26T19:16:22.458Z</time>
      </trkpt>
      <trkpt lat="44.96488" lon="5.16691">
        <ele>595</ele>
        <time>2020-08-26T19:16:43.545Z</time>
      </trkpt>
      <trkpt lat="44.96459" lon="5.16663">
        <ele>604</ele>
        <time>2020-08-26T19:17:11.775Z</time>
      </trkpt>
      <trkpt lat="44.96445" lon="5.16603">
        <ele>593</ele>
        <time>2020-08-26T19:18:29.276Z</time>
      </trkpt>
      <trkpt lat="44.96433" lon="5.16577">
        <ele>588</ele>
        <time>2020-08-26T19:19:02.613Z</time>
      </trkpt>
      <trkpt lat="44.96418" lon="5.16559">
        <ele>584</ele>
        <time>2020-08-26T19:19:28.572Z</time>
      </trkpt>
      <trkpt lat="44.96393" lon="5.1654">
        <ele>581</ele>
        <time>2020-08-26T19:20:28.035Z</time>
      </trkpt>
      <trkpt lat="44.96389" lon="5.16524">
        <ele>575</ele>
        <time>2020-08-26T19:20:54.254Z</time>
      </trkpt>
      <trkpt lat="44.96359" lon="5.16469">
        <ele>558</ele>
        <time>2020-08-26T19:22:13.896Z</time>
      </trkpt>
      <trkpt lat="44.96342" lon="5.16453">
        <ele>554</ele>
        <time>2020-08-26T19:22:47.667Z</time>
      </trkpt>
      <trkpt lat="44.96326" lon="5.16444">
        <ele>556</ele>
        <time>2020-08-26T19:23:04.689Z</time>
      </trkpt>
      <trkpt lat="44.96319" lon="5.16412">
        <ele>551</ele>
        <time>2020-08-26T19:23:41.997Z</time>
      </trkpt>
      <trkpt lat="44.96322" lon="5.16394">
        <ele>548</ele>
        <time>2020-08-26T19:24:08.005Z</time>
      </trkpt>
      <trkpt lat="44.96331" lon="5.16385">
        <ele>546</ele>
        <time>2020-08-26T19:24:28.423Z</time>
      </trkpt>
      <trkpt lat="44.96348" lon="5.16377">
        <ele>539</ele>
        <time>2020-08-26T19:25:04.410Z</time>
      </trkpt>
      <trkpt lat="44.96406" lon="5.16355">
        <ele>523</ele>
        <time>2020-08-26T19:26:58.261Z</time>
      </trkpt>
      <trkpt lat="44.96454" lon="5.16356">
        <ele>511</ele>
        <time>2020-08-26T19:28:11.504Z</time>
      </trkpt>
      <trkpt lat="44.96473" lon="5.16339">
        <ele>507</ele>
        <time>2020-08-26T19:28:37.328Z</time>
      </trkpt>
      <trkpt lat="44.96491" lon="5.16329">
        <ele>505</ele>
        <time>2020-08-26T19:28:53.857Z</time>
      </trkpt>
      <trkpt lat="44.96519" lon="5.16325">
        <ele>506</ele>
        <time>2020-08-26T19:29:17.555Z</time>
      </trkpt>
      <trkpt lat="44.96549" lon="5.16316">
        <ele>501</ele>
        <time>2020-08-26T19:29:54.893Z</time>
      </trkpt>
      <trkpt lat="44.96602" lon="5.16344">
        <ele>493</ele>
        <time>2020-08-26T19:30:41.713Z</time>
      </trkpt>
      <trkpt lat="44.96613" lon="5.16363">
        <ele>494</ele>
        <time>2020-08-26T19:30:56.352Z</time>
      </trkpt>
      <trkpt lat="44.96647" lon="5.16395">
        <ele>493</ele>
        <time>2020-08-26T19:31:29.489Z</time>
      </trkpt>
      <trkpt lat="44.9669" lon="5.1642">
        <ele>491</ele>
        <time>2020-08-26T19:32:11.959Z</time>
      </trkpt>
      <trkpt lat="44.96705" lon="5.16421">
        <ele>489</ele>
        <time>2020-08-26T19:32:26.770Z</time>
      </trkpt>
      <trkpt lat="44.96709" lon="5.16417">
        <ele>488</ele>
        <time>2020-08-26T19:32:31.114Z</time>
      </trkpt>
      <trkpt lat="44.9671" lon="5.16406">
        <ele>486</ele>
        <time>2020-08-26T19:32:42.457Z</time>
      </trkpt>
      <trkpt lat="44.96698" lon="5.16381">
        <ele>482</ele>
        <time>2020-08-26T19:33:16.696Z</time>
      </trkpt>
      <trkpt lat="44.96695" lon="5.16358">
        <ele>479</ele>
        <time>2020-08-26T19:33:43.410Z</time>
      </trkpt>
      <trkpt lat="44.96697" lon="5.16329">
        <ele>474</ele>
        <time>2020-08-26T19:34:18.965Z</time>
      </trkpt>
      <trkpt lat="44.96713" lon="5.16296">
        <ele>467</ele>
        <time>2020-08-26T19:34:53.501Z</time>
      </trkpt>
      <trkpt lat="44.96695" lon="5.16273">
        <ele>466</ele>
        <time>2020-08-26T19:35:13.836Z</time>
      </trkpt>
      <trkpt lat="44.96647" lon="5.16233">
        <ele>468</ele>
        <time>2020-08-26T19:35:58.322Z</time>
      </trkpt>
      <trkpt lat="44.96619" lon="5.16189">
        <ele>465</ele>
        <time>2020-08-26T19:36:31.905Z</time>
      </trkpt>
      <trkpt lat="44.96593" lon="5.16163">
        <ele>466</ele>
        <time>2020-08-26T19:36:58.859Z</time>
      </trkpt>
      <trkpt lat="44.9659" lon="5.16149">
        <ele>466</ele>
        <time>2020-08-26T19:37:07.565Z</time>
      </trkpt>
      <trkpt lat="44.96591" lon="5.16141">
        <ele>466</ele>
        <time>2020-08-26T19:37:12.663Z</time>
      </trkpt>
      <trkpt lat="44.96604" lon="5.1612">
        <ele>466</ele>
        <time>2020-08-26T19:37:31.362Z</time>
      </trkpt>
      <trkpt lat="44.96614" lon="5.16095">
        <ele>467</ele>
        <time>2020-08-26T19:37:50.311Z</time>
      </trkpt>
      <trkpt lat="44.96631" lon="5.16032">
        <ele>470</ele>
        <time>2020-08-26T19:38:37.065Z</time>
      </trkpt>
      <trkpt lat="44.96627" lon="5.15983">
        <ele>472</ele>
        <time>2020-08-26T19:39:09.110Z</time>
      </trkpt>
      <trkpt lat="44.96616" lon="5.15926">
        <ele>473</ele>
        <time>2020-08-26T19:39:42.647Z</time>
      </trkpt>
      <trkpt lat="44.96617" lon="5.15902">
        <ele>470</ele>
        <time>2020-08-26T19:39:56.929Z</time>
      </trkpt>
      <trkpt lat="44.9662" lon="5.15895">
        <ele>469</ele>
        <time>2020-08-26T19:40:02.582Z</time>
      </trkpt>
      <trkpt lat="44.9663" lon="5.1589">
        <ele>467</ele>
        <time>2020-08-26T19:40:12.431Z</time>
      </trkpt>
      <trkpt lat="44.96639" lon="5.15894">
        <ele>467</ele>
        <time>2020-08-26T19:40:20.289Z</time>
      </trkpt>
      <trkpt lat="44.96647" lon="5.15903">
        <ele>466</ele>
        <time>2020-08-26T19:40:28.530Z</time>
      </trkpt>
      <trkpt lat="44.96666" lon="5.15944">
        <ele>465</ele>
        <time>2020-08-26T19:41:00.045Z</time>
      </trkpt>
      <trkpt lat="44.96678" lon="5.15954">
        <ele>463</ele>
        <time>2020-08-26T19:41:13.100Z</time>
      </trkpt>
      <trkpt lat="44.9672" lon="5.15973">
        <ele>457</ele>
        <time>2020-08-26T19:41:55.677Z</time>
      </trkpt>
      <trkpt lat="44.96757" lon="5.15985">
        <ele>454</ele>
        <time>2020-08-26T19:42:26.073Z</time>
      </trkpt>
      <trkpt lat="44.96775" lon="5.16001">
        <ele>453</ele>
        <time>2020-08-26T19:42:43.595Z</time>
      </trkpt>
      <trkpt lat="44.96783" lon="5.16009">
        <ele>453</ele>
        <time>2020-08-26T19:42:52.591Z</time>
      </trkpt>
      <trkpt lat="44.96787" lon="5.16033">
        <ele>451</ele>
        <time>2020-08-26T19:43:08.919Z</time>
      </trkpt>
      <trkpt lat="44.96789" lon="5.16075">
        <ele>447</ele>
        <time>2020-08-26T19:43:52.853Z</time>
      </trkpt>
      <trkpt lat="44.96794" lon="5.16091">
        <ele>444</ele>
        <time>2020-08-26T19:44:11.303Z</time>
      </trkpt>
      <trkpt lat="44.96812" lon="5.16104">
        <ele>439</ele>
        <time>2020-08-26T19:44:42.422Z</time>
      </trkpt>
      <trkpt lat="44.96828" lon="5.16105">
        <ele>436</ele>
        <time>2020-08-26T19:44:58.910Z</time>
      </trkpt>
      <trkpt lat="44.96842" lon="5.161">
        <ele>434</ele>
        <time>2020-08-26T19:45:12.906Z</time>
      </trkpt>
      <trkpt lat="44.96914" lon="5.16056">
        <ele>428</ele>
        <time>2020-08-26T19:46:16.837Z</time>
      </trkpt>
      <trkpt lat="44.9699" lon="5.15997">
        <ele>424</ele>
        <time>2020-08-26T19:47:31.397Z</time>
      </trkpt>
      <trkpt lat="44.97023" lon="5.15964">
        <ele>418</ele>
        <time>2020-08-26T19:48:15.371Z</time>
      </trkpt>
      <trkpt lat="44.97029" lon="5.1594">
        <ele>416</ele>
        <time>2020-08-26T19:48:32.174Z</time>
      </trkpt>
      <trkpt lat="44.9703" lon="5.15926">
        <ele>415</ele>
        <time>2020-08-26T19:48:40.512Z</time>
      </trkpt>
      <trkpt lat="44.97029" lon="5.15893">
        <ele>415</ele>
        <time>2020-08-26T19:48:58.826Z</time>
      </trkpt>
      <trkpt lat="44.97025" lon="5.1588">
        <ele>416</ele>
        <time>2020-08-26T19:49:06.780Z</time>
      </trkpt>
      <trkpt lat="44.97003" lon="5.15826">
        <ele>415</ele>
        <time>2020-08-26T19:49:42.227Z</time>
      </trkpt>
      <trkpt lat="44.96988" lon="5.15806">
        <ele>414</ele>
        <time>2020-08-26T19:50:00.017Z</time>
      </trkpt>
      <trkpt lat="44.96975" lon="5.15796">
        <ele>414</ele>
        <time>2020-08-26T19:50:14.402Z</time>
      </trkpt>
      <trkpt lat="44.96947" lon="5.15802">
        <ele>418</ele>
        <time>2020-08-26T19:50:45.706Z</time>
      </trkpt>
      <trkpt lat="44.96935" lon="5.1581">
        <ele>419</ele>
        <time>2020-08-26T19:51:00.048Z</time>
      </trkpt>
      <trkpt lat="44.96919" lon="5.15795">
        <ele>419</ele>
        <time>2020-08-26T19:51:19.193Z</time>
      </trkpt>
      <trkpt lat="44.96914" lon="5.15786">
        <ele>420</ele>
        <time>2020-08-26T19:51:27.661Z</time>
      </trkpt>
      <trkpt lat="44.96913" lon="5.15769">
        <ele>421</ele>
        <time>2020-08-26T19:51:40.730Z</time>
      </trkpt>
      <trkpt lat="44.96925" lon="5.15743">
        <ele>423</ele>
        <time>2020-08-26T19:52:07.983Z</time>
      </trkpt>
      <trkpt lat="44.96922" lon="5.15725">
        <ele>425</ele>
        <time>2020-08-26T19:52:25.342Z</time>
      </trkpt>
      <trkpt lat="44.96906" lon="5.15692">
        <ele>428</ele>
        <time>2020-08-26T19:52:52.194Z</time>
      </trkpt>
      <trkpt lat="44.96866" lon="5.15628">
        <ele>429</ele>
        <time>2020-08-26T19:53:40.505Z</time>
      </trkpt>
      <trkpt lat="44.96862" lon="5.15616">
        <ele>428</ele>
        <time>2020-08-26T19:53:48.253Z</time>
      </trkpt>
      <trkpt lat="44.96843" lon="5.15583">
        <ele>428</ele>
        <time>2020-08-26T19:54:12.503Z</time>
      </trkpt>
      <trkpt lat="44.96826" lon="5.15558">
        <ele>428</ele>
        <time>2020-08-26T19:54:31.809Z</time>
      </trkpt>
      <trkpt lat="44.96799" lon="5.15531">
        <ele>427</ele>
        <time>2020-08-26T19:54:58.336Z</time>
      </trkpt>
      <trkpt lat="44.96778" lon="5.15518">
        <ele>425</ele>
        <time>2020-08-26T19:55:19.992Z</time>
      </trkpt>
      <trkpt lat="44.96753" lon="5.15518">
        <ele>422</ele>
        <time>2020-08-26T19:55:39.491Z</time>
      </trkpt>
      <trkpt lat="44.96679" lon="5.15557">
        <ele>422</ele>
        <time>2020-08-26T19:56:50.679Z</time>
      </trkpt>
      <trkpt lat="44.96638" lon="5.15575">
        <ele>426</ele>
        <time>2020-08-26T19:57:39.228Z</time>
      </trkpt>
      <trkpt lat="44.96612" lon="5.1558">
        <ele>428</ele>
        <time>2020-08-26T19:58:02.055Z</time>
      </trkpt>
      <trkpt lat="44.96597" lon="5.1557">
        <ele>428</ele>
        <time>2020-08-26T19:58:15.276Z</time>
      </trkpt>
      <trkpt lat="44.96593" lon="5.15562">
        <ele>427</ele>
        <time>2020-08-26T19:58:21.738Z</time>
      </trkpt>
      <trkpt lat="44.96597" lon="5.15481">
        <ele>420</ele>
        <time>2020-08-26T19:59:16.226Z</time>
      </trkpt>
      <trkpt lat="44.96596" lon="5.1547">
        <ele>418</ele>
        <time>2020-08-26T19:59:23.392Z</time>
      </trkpt>
      <trkpt lat="44.96591" lon="5.15464">
        <ele>416</ele>
        <time>2020-08-26T19:59:29.528Z</time>
      </trkpt>
      <trkpt lat="44.9656" lon="5.15462">
        <ele>416</ele>
        <time>2020-08-26T19:59:56.186Z</time>
      </trkpt>
      <trkpt lat="44.9653" lon="5.15451">
        <ele>417</ele>
        <time>2020-08-26T20:00:24.678Z</time>
      </trkpt>
      <trkpt lat="44.96491" lon="5.15466">
        <ele>419</ele>
        <time>2020-08-26T20:01:03.169Z</time>
      </trkpt>
      <trkpt lat="44.9648" lon="5.15463">
        <ele>419</ele>
        <time>2020-08-26T20:01:13.191Z</time>
      </trkpt>
      <trkpt lat="44.96481" lon="5.15447">
        <ele>420</ele>
        <time>2020-08-26T20:01:23.893Z</time>
      </trkpt>
      <trkpt lat="44.96497" lon="5.15423">
        <ele>421</ele>
        <time>2020-08-26T20:01:48.845Z</time>
      </trkpt>
      <trkpt lat="44.96501" lon="5.15399">
        <ele>424</ele>
        <time>2020-08-26T20:02:06.563Z</time>
      </trkpt>
      <trkpt lat="44.96518" lon="5.15371">
        <ele>425</ele>
        <time>2020-08-26T20:02:34.261Z</time>
      </trkpt>
      <trkpt lat="44.96519" lon="5.1536">
        <ele>425</ele>
        <time>2020-08-26T20:02:42.503Z</time>
      </trkpt>
      <trkpt lat="44.96508" lon="5.15357">
        <ele>427</ele>
        <time>2020-08-26T20:02:53.623Z</time>
      </trkpt>
      <trkpt lat="44.96504" lon="5.15351">
        <ele>428</ele>
        <time>2020-08-26T20:02:59.952Z</time>
      </trkpt>
      <trkpt lat="44.96478" lon="5.15229">
        <ele>433</ele>
        <time>2020-08-26T20:04:27.135Z</time>
      </trkpt>
      <trkpt lat="44.96454" lon="5.1516">
        <ele>436</ele>
        <time>2020-08-26T20:05:16.123Z</time>
      </trkpt>
      <trkpt lat="44.96407" lon="5.1498">
        <ele>439</ele>
        <time>2020-08-26T20:07:14.122Z</time>
      </trkpt>
      <trkpt lat="44.96385" lon="5.14936">
        <ele>440</ele>
        <time>2020-08-26T20:07:48.119Z</time>
      </trkpt>
      <trkpt lat="44.96337" lon="5.14861">
        <ele>442</ele>
        <time>2020-08-26T20:08:45.344Z</time>
      </trkpt>
      <trkpt lat="44.96328" lon="5.14837">
        <ele>441</ele>
        <time>2020-08-26T20:09:00.984Z</time>
      </trkpt>
      <trkpt lat="44.9633" lon="5.14815">
        <ele>440</ele>
        <time>2020-08-26T20:09:13.470Z</time>
      </trkpt>
      <trkpt lat="44.96345" lon="5.14771">
        <ele>440</ele>
        <time>2020-08-26T20:09:40.892Z</time>
      </trkpt>
      <trkpt lat="44.96352" lon="5.14692">
        <ele>440</ele>
        <time>2020-08-26T20:10:26.141Z</time>
      </trkpt>
      <trkpt lat="44.96342" lon="5.14584">
        <ele>436</ele>
        <time>2020-08-26T20:11:30.420Z</time>
      </trkpt>
      <trkpt lat="44.96334" lon="5.14544">
        <ele>433</ele>
        <time>2020-08-26T20:11:53.934Z</time>
      </trkpt>
      <trkpt lat="44.96312" lon="5.14494">
        <ele>433</ele>
        <time>2020-08-26T20:12:26.835Z</time>
      </trkpt>
      <trkpt lat="44.96311" lon="5.14478">
        <ele>432</ele>
        <time>2020-08-26T20:12:36.401Z</time>
      </trkpt>
      <trkpt lat="44.96325" lon="5.14433">
        <ele>429</ele>
        <time>2020-08-26T20:13:04.162Z</time>
      </trkpt>
      <trkpt lat="44.96341" lon="5.14327">
        <ele>431</ele>
        <time>2020-08-26T20:14:05.786Z</time>
      </trkpt>
      <trkpt lat="44.96345" lon="5.14314">
        <ele>431</ele>
        <time>2020-08-26T20:14:13.866Z</time>
      </trkpt>
      <trkpt lat="44.96333" lon="5.1421">
        <ele>427</ele>
        <time>2020-08-26T20:15:23.213Z</time>
      </trkpt>
      <trkpt lat="44.96312" lon="5.14171">
        <ele>420</ele>
        <time>2020-08-26T20:16:10.320Z</time>
      </trkpt>
      <trkpt lat="44.96286" lon="5.14141">
        <ele>415</ele>
        <time>2020-08-26T20:16:37.591Z</time>
      </trkpt>
      <trkpt lat="44.96282" lon="5.14128">
        <ele>413</ele>
        <time>2020-08-26T20:16:45.289Z</time>
      </trkpt>
      <trkpt lat="44.96221" lon="5.14134">
        <ele>418</ele>
        <time>2020-08-26T20:17:49.803Z</time>
      </trkpt>
      <trkpt lat="44.96177" lon="5.14148">
        <ele>421</ele>
        <time>2020-08-26T20:18:32.328Z</time>
      </trkpt>
      <trkpt lat="44.96075" lon="5.14171">
        <ele>425</ele>
        <time>2020-08-26T20:20:09.447Z</time>
      </trkpt>
      <trkpt lat="44.95967" lon="5.14187">
        <ele>431</ele>
        <time>2020-08-26T20:21:47.953Z</time>
      </trkpt>
      <trkpt lat="44.95889" lon="5.14205">
        <ele>432</ele>
        <time>2020-08-26T20:22:53.829Z</time>
      </trkpt>
      <trkpt lat="44.95855" lon="5.14219">
        <ele>432</ele>
        <time>2020-08-26T20:23:26.029Z</time>
      </trkpt>
      <trkpt lat="44.95822" lon="5.1425">
        <ele>435</ele>
        <time>2020-08-26T20:24:07.030Z</time>
      </trkpt>
      <trkpt lat="44.95772" lon="5.14288">
        <ele>439</ele>
        <time>2020-08-26T20:25:16.930Z</time>
      </trkpt>
      <trkpt lat="44.95755" lon="5.1431">
        <ele>443</ele>
        <time>2020-08-26T20:25:49.338Z</time>
      </trkpt>
      <trkpt lat="44.9573" lon="5.14322">
        <ele>445</ele>
        <time>2020-08-26T20:26:09.964Z</time>
      </trkpt>
      <trkpt lat="44.95677" lon="5.14308">
        <ele>441</ele>
        <time>2020-08-26T20:26:53.506Z</time>
      </trkpt>
      <trkpt lat="44.95642" lon="5.14293">
        <ele>440</ele>
        <time>2020-08-26T20:27:22.604Z</time>
      </trkpt>
      <trkpt lat="44.95584" lon="5.14261">
        <ele>438</ele>
        <time>2020-08-26T20:28:12.992Z</time>
      </trkpt>
      <trkpt lat="44.95541" lon="5.14225">
        <ele>434</ele>
        <time>2020-08-26T20:28:54.098Z</time>
      </trkpt>
      <trkpt lat="44.95516" lon="5.14226">
        <ele>433</ele>
        <time>2020-08-26T20:29:14.140Z</time>
      </trkpt>
      <trkpt lat="44.95455" lon="5.14262">
        <ele>429</ele>
        <time>2020-08-26T20:30:06.572Z</time>
      </trkpt>
      <trkpt lat="44.95378" lon="5.14317">
        <ele>430</ele>
        <time>2020-08-26T20:31:19.504Z</time>
      </trkpt>
      <trkpt lat="44.9533" lon="5.14339">
        <ele>431</ele>
        <time>2020-08-26T20:32:22.406Z</time>
      </trkpt>
      <trkpt lat="44.95286" lon="5.14367">
        <ele>440</ele>
        <time>2020-08-26T20:33:09.615Z</time>
      </trkpt>
      <trkpt lat="44.95248" lon="5.14411">
        <ele>437</ele>
        <time>2020-08-26T20:33:52.938Z</time>
      </trkpt>
      <trkpt lat="44.95212" lon="5.14418">
        <ele>433</ele>
        <time>2020-08-26T20:34:21.871Z</time>
      </trkpt>
      <trkpt lat="44.95153" lon="5.14505">
        <ele>434</ele>
        <time>2020-08-26T20:35:33.134Z</time>
      </trkpt>
    </trkseg>
  </trk>
</gpx>